Time;durP1;ratioP1;P1;durP2;ratioP2;P2;SDS_P1;SDS_P2;PMS_P1;PMS_P2;Temp;Humidity;BMP_temperature;BMP_pressure;BME280_temperature;BME280_humidity;BME280_pressure;Samples;Min_cycle;Max_cycle;Signal;HPM_P1;HPM_P2
2022/03/28 00:00:01;;;;;;;;;;;;;;;18.97;54.56;99577.41;2054977;28;19926;-51
2022/03/28 00:01:02;;;;;;;;;;;;;;;18.98;54.91;99578.22;2052894;28;20649;-57
2022/03/28 00:02:04;;;;;;;;;;;;;;;18.97;54.66;99581.91;2053251;28;19932;-56
2022/03/28 00:03:05;;;;;;;;;;;;;;;18.97;54.90;99576.53;2051417;28;19926;-54
2022/03/28 00:04:06;;;;;;;;;;;;;;;18.96;54.66;99573.03;2051448;28;19922;-54
2022/03/28 00:05:08;;;;;;;;;;;;;;;18.98;54.70;99581.75;2054003;28;20442;-53
2022/03/28 00:06:09;;;;;;;;;;;;;;;18.95;54.90;99579.44;2053994;28;19933;-47
2022/03/28 00:07:12;;;;;;;;;;;;;;;18.95;54.92;99579.44;2055074;28;20021;-54
2022/03/28 00:08:13;;;;;;;;;;;;;;;18.95;55.15;99578.59;2052886;28;19970;-57
2022/03/28 00:09:14;;;;;;;;;;;;;;;18.95;55.24;99578.59;2053544;28;19925;-54
2022/03/28 00:10:15;;;;;;;;;;;;;;;18.95;54.74;99578.59;2055242;28;19926;-55
2022/03/28 00:11:17;;;;;;;;;;;;;;;18.94;54.85;99580.47;2053579;28;20325;-54
2022/03/28 00:12:18;;;;;;;;;;;;;;;18.93;54.92;99578.78;2048968;28;19921;-54
2022/03/28 00:13:19;;;;;;;;;;;;;;;18.94;55.11;99575.09;2051179;28;20491;-52
2022/03/28 00:14:21;;;;;;;;;;;;;;;18.94;54.90;99579.59;2053374;28;19928;-54
2022/03/28 00:15:21;;;;;;;;;;;;;;;18.94;55.11;99576.91;2053944;28;20486;-55
2022/03/28 00:16:23;;;;;;;;;;;;;;;18.94;55.08;99583.16;2052581;28;19930;-53
2022/03/28 00:17:23;;;;;;;;;;;;;;;18.92;55.11;99576.28;2054495;28;20532;-59
2022/03/28 00:18:25;;;;;;;;;;;;;;;18.92;54.58;99582.50;2050706;28;19981;-52
2022/03/28 00:19:25;;;;;;;;;;;;;;;18.92;54.94;99571.72;2052518;28;20710;-55
2022/03/28 00:20:27;;;;;;;;;;;;;;;18.91;55.01;99572.72;2052088;28;19926;-55
2022/03/28 00:21:28;;;;;;;;;;;;;;;18.91;54.80;99578.09;2054244;28;20896;-54
2022/03/28 00:22:31;;;;;;;;;;;;;;;18.92;55.03;99578.97;2050164;28;19969;-56
2022/03/28 00:23:32;;;;;;;;;;;;;;;18.91;55.06;99578.09;2054742;28;20831;-48
2022/03/28 00:24:33;;;;;;;;;;;;;;;18.90;54.95;99571.06;2050797;28;19921;-56
2022/03/28 00:25:35;;;;;;;;;;;;;;;18.91;54.78;99574.59;2055382;28;19929;-53
2022/03/28 00:26:37;;;;;;;;;;;;;;;18.88;54.88;99565.03;2042042;28;19969;-54
2022/03/28 00:27:38;;;;;;;;;;;;;;;18.88;54.74;99562.34;2052039;28;19969;-47
2022/03/28 00:28:40;;;;;;;;;;;;;;;18.89;55.02;99564.03;2053461;28;19926;-56
2022/03/28 00:29:41;;;;;;;;;;;;;;;18.88;55.05;99564.22;2052863;28;20013;-55
2022/03/28 00:30:42;;;;;;;;;;;;;;;18.89;54.81;99565.91;2050308;28;19926;-54
2022/03/28 00:31:44;;;;;;;;;;;;;;;18.87;55.06;99563.38;2052090;28;20017;-54
2022/03/28 00:32:44;;;;;;;;;;;;;;;18.87;55.03;99559.84;2049990;28;19925;-53
2022/03/28 00:33:49;;;;;;;;;;;;;;;18.87;54.89;99563.38;2054550;28;19925;-59
2022/03/28 00:34:51;;;;;;;;;;;;;;;18.87;54.90;99557.16;2054135;28;20442;-54
2022/03/28 00:35:51;;;;;;;;;;;;;;;18.85;54.82;99560.03;2055999;28;19926;-54
2022/03/28 00:36:53;;;;;;;;;;;;;;;18.85;55.04;99560.03;2053893;28;19933;-53
2022/03/28 00:37:55;;;;;;;;;;;;;;;18.85;55.21;99562.72;2054553;28;19933;-53
2022/03/28 00:38:57;;;;;;;;;;;;;;;18.85;55.19;99560.03;2054972;28;20439;-55
2022/03/28 00:39:57;;;;;;;;;;;;;;;18.85;54.94;99561.88;2054485;28;19933;-57
2022/03/28 00:40:59;;;;;;;;;;;;;;;18.85;54.75;99560.03;2054408;28;19922;-53
2022/03/28 00:41:59;;;;;;;;;;;;;;;18.84;54.89;99561.06;2052160;28;19930;-57
2022/03/28 00:43:03;;;;;;;;;;;;;;;18.84;55.08;99552.16;2052121;28;20033;-51
2022/03/28 00:44:05;;;;;;;;;;;;;;;18.82;54.96;99555.03;2051198;28;20009;-56
2022/03/28 00:45:08;;;;;;;;;;;;;;;18.83;54.78;99554.00;2052869;28;19949;-56
2022/03/28 00:46:08;;;;;;;;;;;;;;;18.82;54.92;99557.72;2052326;28;19929;-51
2022/03/28 00:47:10;;;;;;;;;;;;;;;18.83;54.75;99553.16;2052994;28;20024;-54
2022/03/28 00:48:11;;;;;;;;;;;;;;;18.83;54.94;99550.47;2054183;28;20014;-53
2022/03/28 00:49:12;;;;;;;;;;;;;;;18.81;54.69;99550.69;2054232;28;20533;-52
2022/03/28 00:50:13;;;;;;;;;;;;;;;18.82;54.95;99546.13;2054297;28;19921;-55
2022/03/28 00:51:16;;;;;;;;;;;;;;;18.80;54.82;99540.91;2049894;28;19933;-55
2022/03/28 00:52:17;;;;;;;;;;;;;;;18.81;54.94;99542.59;2054158;28;20699;-55
2022/03/28 00:53:20;;;;;;;;;;;;;;;18.80;54.99;99548.16;2054828;28;19922;-56
2022/03/28 00:54:20;;;;;;;;;;;;;;;18.81;54.99;99541.78;2053651;28;19922;-50
2022/03/28 00:55:22;;;;;;;;;;;;;;;18.80;54.85;99540.91;2052636;28;19977;-53
2022/03/28 00:56:24;;;;;;;;;;;;;;;18.80;55.19;99538.22;2054430;28;21223;-50
2022/03/28 00:57:24;;;;;;;;;;;;;;;18.80;54.86;99546.28;2051694;28;19929;-53
2022/03/28 00:58:26;;;;;;;;;;;;;;;18.81;55.15;99539.91;2053944;28;19968;-53
2022/03/28 00:59:27;;;;;;;;;;;;;;;18.79;55.09;99544.63;2052073;28;19941;-54
2022/03/28 01:00:28;;;;;;;;;;;;;;;18.79;54.96;99536.56;2054484;28;20398;-52
2022/03/28 01:01:30;;;;;;;;;;;;;;;18.78;54.76;99534.91;2054524;28;20467;-57
2022/03/28 01:02:31;;;;;;;;;;;;;;;18.78;55.24;99537.59;2053145;28;20670;-54
2022/03/28 01:03:33;;;;;;;;;;;;;;;18.77;54.70;99535.09;2056099;28;19932;-59
2022/03/28 01:04:37;;;;;;;;;;;;;;;18.77;55.08;99530.53;2055828;28;19956;-54
2022/03/28 01:05:39;;;;;;;;;;;;;;;18.77;54.98;99535.91;2051825;28;20087;-52
2022/03/28 01:06:39;;;;;;;;;;;;;;;18.76;55.21;99536.94;2052067;28;20099;-50
2022/03/28 01:07:41;;;;;;;;;;;;;;;18.76;55.09;99534.25;2054884;28;20061;-53
2022/03/28 01:08:44;;;;;;;;;;;;;;;18.75;55.14;99535.28;2050973;28;19929;-50
2022/03/28 01:09:45;;;;;;;;;;;;;;;18.76;55.03;99539.63;2053137;28;20533;-55
2022/03/28 01:10:48;;;;;;;;;;;;;;;18.74;55.29;99528.22;2052536;28;19929;-52
2022/03/28 01:11:51;;;;;;;;;;;;;;;18.74;55.00;99531.75;2054667;28;19939;-56
2022/03/28 01:12:53;;;;;;;;;;;;;;;18.74;55.05;99530.91;2054102;28;19930;-55
2022/03/28 01:13:54;;;;;;;;;;;;;;;18.74;55.21;99530.91;2053390;28;19926;-55
2022/03/28 01:14:56;;;;;;;;;;;;;;;18.74;55.19;99529.03;2053841;28;19922;-49
2022/03/28 01:15:58;;;;;;;;;;;;;;;18.73;55.14;99526.53;2055250;28;19925;-54
2022/03/28 01:18:18;;;;;;;;;;;;;;;18.73;55.02;99532.72;2052869;28;19926;-55
2022/03/28 01:19:19;;;;;;;;;;;;;;;18.73;54.77;99526.53;2052164;28;19934;-49
2022/03/28 01:20:19;;;;;;;;;;;;;;;18.72;54.92;99527.53;2054948;28;19988;-59
2022/03/28 01:21:22;;;;;;;;;;;;;;;18.73;55.02;99530.03;2053561;28;19941;-57
2022/03/28 01:22:23;;;;;;;;;;;;;;;18.72;55.01;99528.38;2054422;28;20045;-51
2022/03/28 01:23:25;;;;;;;;;;;;;;;18.71;55.12;99525.88;2051529;28;20606;-58
2022/03/28 01:24:25;;;;;;;;;;;;;;;18.71;54.83;99528.56;2052392;28;19976;-50
2022/03/28 01:25:29;;;;;;;;;;;;;;;18.70;55.17;99524.22;2048908;28;19933;-53
2022/03/28 01:26:29;;;;;;;;;;;;;;;18.70;54.95;99527.72;2053926;28;20652;-50
2022/03/28 01:27:36;;;;;;;;;;;;;;;18.69;55.35;99525.22;2055781;28;19928;-55
2022/03/28 01:28:37;;;;;;;;;;;;;;;18.69;54.81;99523.38;2052015;28;20523;-58
2022/03/28 01:29:38;;;;;;;;;;;;;;;18.69;55.16;99525.22;2053208;28;19926;-51
2022/03/28 01:30:39;;;;;;;;;;;;;;;18.69;55.24;99519.84;2052790;28;20372;-53
2022/03/28 01:31:40;;;;;;;;;;;;;;;18.69;54.99;99522.53;2054089;28;20008;-53
2022/03/28 01:32:42;;;;;;;;;;;;;;;18.69;55.31;99517.16;2054354;28;19922;-53
2022/03/28 01:33:44;;;;;;;;;;;;;;;18.68;55.23;99519.00;2051974;28;19929;-54
2022/03/28 01:34:44;;;;;;;;;;;;;;;18.67;55.08;99522.72;2054789;28;20024;-51
2022/03/28 01:35:46;;;;;;;;;;;;;;;18.68;55.33;99523.56;2052067;28;19926;-55
2022/03/28 01:36:48;;;;;;;;;;;;;;;18.67;55.31;99521.91;2055208;28;20028;-54
2022/03/28 01:37:50;;;;;;;;;;;;;;;18.67;55.08;99521.91;2054736;28;19933;-52
2022/03/28 01:38:50;;;;;;;;;;;;;;;18.67;55.06;99519.22;2051759;28;19933;-54
2022/03/28 01:39:52;;;;;;;;;;;;;;;18.65;54.92;99513.16;2052630;28;19932;-55
2022/03/28 01:40:54;;;;;;;;;;;;;;;18.65;55.11;99513.16;2051907;28;20012;-55
2022/03/28 01:41:55;;;;;;;;;;;;;;;18.65;55.19;99518.53;2052477;28;19926;-51
2022/03/28 01:42:57;;;;;;;;;;;;;;;18.65;54.94;99518.53;2054263;28;19968;-55
2022/03/28 01:43:57;;;;;;;;;;;;;;;18.67;55.28;99519.22;2052619;28;20956;-53
2022/03/28 01:44:59;;;;;;;;;;;;;;;18.65;55.20;99522.06;2049297;28;19930;-56
2022/03/28 01:46:00;;;;;;;;;;;;;;;18.63;55.10;99515.19;2052852;28;19988;-53
2022/03/28 01:47:01;;;;;;;;;;;;;;;18.63;55.26;99516.03;2053611;28;19957;-49
2022/03/28 01:48:03;;;;;;;;;;;;;;;18.63;55.06;99518.72;2053262;28;19949;-55
2022/03/28 01:49:04;;;;;;;;;;;;;;;18.64;55.19;99514.19;2052325;28;20705;-54
2022/03/28 01:50:06;;;;;;;;;;;;;;;18.62;55.32;99519.75;2054537;28;19937;-50
2022/03/28 01:51:06;;;;;;;;;;;;;;;18.63;55.01;99518.72;2052807;28;19922;-52
2022/03/28 01:52:10;;;;;;;;;;;;;;;18.62;55.10;99516.22;2052318;28;19929;-54
2022/03/28 01:53:11;;;;;;;;;;;;;;;18.62;55.03;99513.53;2053564;28;20417;-53
2022/03/28 01:54:12;;;;;;;;;;;;;;;18.62;55.23;99519.75;2052887;28;23094;-53
2022/03/28 01:55:14;;;;;;;;;;;;;;;18.63;55.37;99515.19;2053071;28;19928;-51
2022/03/28 01:56:15;;;;;;;;;;;;;;;18.60;55.13;99512.88;2054595;28;19929;-53
2022/03/28 01:57:16;;;;;;;;;;;;;;;18.61;55.38;99514.53;2055777;28;19925;-48
2022/03/28 01:58:18;;;;;;;;;;;;;;;18.61;55.43;99514.53;2054338;28;20446;-52
2022/03/28 01:59:18;;;;;;;;;;;;;;;18.60;55.12;99508.34;2051632;28;20598;-53
2022/03/28 02:00:21;;;;;;;;;;;;;;;18.60;55.16;99515.56;2054190;28;19988;-50
2022/03/28 02:01:21;;;;;;;;;;;;;;;18.59;55.25;99512.03;2051434;28;19922;-53
2022/03/28 02:02:27;;;;;;;;;;;;;;;18.59;54.98;99516.59;2051300;28;20753;-51
2022/03/28 02:03:27;;;;;;;;;;;;;;;18.58;55.14;99512.22;2054330;28;19922;-49
2022/03/28 02:04:31;;;;;;;;;;;;;;;18.58;55.25;99517.59;2051579;28;19944;-53
2022/03/28 02:05:32;;;;;;;;;;;;;;;18.58;55.04;99512.22;2053521;28;19984;-51
2022/03/28 02:06:34;;;;;;;;;;;;;;;18.58;55.18;99514.91;2059113;28;19997;-53
2022/03/28 02:07:36;;;;;;;;;;;;;;;18.58;55.56;99514.91;2050758;28;20519;-52
2022/03/28 02:08:37;;;;;;;;;;;;;;;18.57;55.32;99507.88;2056793;28;19922;-50
2022/03/28 02:09:39;;;;;;;;;;;;;;;18.58;55.32;99517.59;2051721;28;19926;-51
2022/03/28 02:10:41;;;;;;;;;;;;;;;18.57;55.27;99514.06;2052523;28;20476;-51
2022/03/28 02:11:41;;;;;;;;;;;;;;;18.56;55.24;99508.91;2054955;28;19961;-49
2022/03/28 02:12:43;;;;;;;;;;;;;;;18.56;55.22;99508.91;2053303;28;19925;-51
2022/03/28 02:13:43;;;;;;;;;;;;;;;18.54;55.02;99512.59;2053809;28;20106;-48
2022/03/28 02:14:45;;;;;;;;;;;;;;;18.54;55.23;99509.91;2053206;28;19932;-51
2022/03/28 02:15:46;;;;;;;;;;;;;;;18.54;55.33;99511.75;2052828;28;20318;-49
2022/03/28 02:16:47;;;;;;;;;;;;;;;18.53;55.30;99510.09;2054433;28;19925;-50
2022/03/28 02:17:49;;;;;;;;;;;;;;;18.52;55.24;99506.53;2053849;28;20601;-49
2022/03/28 02:18:49;;;;;;;;;;;;;;;18.53;55.23;99510.91;2048437;28;20304;-49
2022/03/28 02:19:51;;;;;;;;;;;;;;;18.52;55.15;99509.22;2053082;28;20016;-51
2022/03/28 02:20:52;;;;;;;;;;;;;;;18.52;55.33;99503.88;2054392;28;19930;-50
2022/03/28 02:21:53;;;;;;;;;;;;;;;18.53;55.35;99510.91;2056030;28;19929;-49
2022/03/28 02:22:55;;;;;;;;;;;;;;;18.52;55.31;99511.91;2052002;28;20043;-50
2022/03/28 02:23:59;;;;;;;;;;;;;;;18.54;55.11;99509.06;2056067;28;20025;-51
2022/03/28 02:25:00;;;;;;;;;;;;;;;18.52;55.42;99511.09;2050327;28;19965;-52
2022/03/28 02:26:03;;;;;;;;;;;;;;;18.52;55.33;99506.53;2057037;28;19925;-49
2022/03/28 02:27:03;;;;;;;;;;;;;;;18.50;55.34;99505.91;2056943;28;20008;-50
2022/03/28 02:28:05;;;;;;;;;;;;;;;18.49;55.25;99506.09;2051086;28;20616;-51
2022/03/28 02:29:07;;;;;;;;;;;;;;;18.50;55.12;99499.72;2048747;28;19932;-49
2022/03/28 02:30:10;;;;;;;;;;;;;;;18.51;55.44;99501.38;2057351;28;19929;-49
2022/03/28 02:31:10;;;;;;;;;;;;;;;18.49;55.25;99503.41;2057055;28;19949;-50
2022/03/28 02:32:12;;;;;;;;;;;;;;;18.49;55.08;99504.22;2052285;28;19925;-52
2022/03/28 02:33:13;;;;;;;;;;;;;;;18.50;55.36;99499.72;2052494;28;20085;-53
2022/03/28 02:34:14;;;;;;;;;;;;;;;18.49;55.40;99498.84;2053841;28;19930;-51
2022/03/28 02:35:16;;;;;;;;;;;;;;;18.47;55.42;99500.91;2050594;28;19922;-51
2022/03/28 02:36:17;;;;;;;;;;;;;;;18.47;55.10;99500.06;2054613;28;20412;-51
2022/03/28 02:37:19;;;;;;;;;;;;;;;18.46;55.44;99493.84;2053958;28;19922;-51
2022/03/28 02:38:21;;;;;;;;;;;;;;;18.47;55.20;99503.59;2052737;28;19945;-48
2022/03/28 02:39:22;;;;;;;;;;;;;;;18.45;55.20;99502.94;2053632;28;19941;-52
2022/03/28 02:40:24;;;;;;;;;;;;;;;18.46;55.37;99504.59;2055269;28;19926;-52
2022/03/28 02:41:24;;;;;;;;;;;;;;;18.48;55.17;99499.06;2054653;28;19922;-51
2022/03/28 02:42:26;;;;;;;;;;;;;;;18.46;55.47;99504.59;2054155;28;19930;-55
2022/03/28 02:43:28;;;;;;;;;;;;;;;18.44;55.16;99500.41;2056111;28;20442;-53
2022/03/28 02:44:30;;;;;;;;;;;;;;;18.44;55.30;99501.28;2055607;28;19936;-53
2022/03/28 02:45:32;;;;;;;;;;;;;;;18.44;55.33;99497.72;2055557;28;19925;-56
2022/03/28 02:46:34;;;;;;;;;;;;;;;18.44;55.51;99503.09;2049721;28;19926;-50
2022/03/28 02:47:35;;;;;;;;;;;;;;;18.44;55.24;99495.03;2055765;28;19926;-51
2022/03/28 02:48:36;;;;;;;;;;;;;;;18.44;55.40;99498.59;2056225;28;19925;-49
2022/03/28 02:49:37;;;;;;;;;;;;;;;18.43;55.24;99494.22;2053041;28;19928;-49
2022/03/28 02:50:38;;;;;;;;;;;;;;;18.42;55.18;99502.47;2042450;28;19933;-51
2022/03/28 02:51:40;;;;;;;;;;;;;;;18.43;55.34;99498.75;2051946;28;20280;-50
2022/03/28 02:52:40;;;;;;;;;;;;;;;18.42;55.43;99500.63;2055033;28;19929;-49
2022/03/28 02:53:43;;;;;;;;;;;;;;;18.42;55.33;99497.09;2054922;28;19930;-49
2022/03/28 02:54:44;;;;;;;;;;;;;;;18.44;55.36;99495.03;2053047;28;19941;-50
2022/03/28 02:55:47;;;;;;;;;;;;;;;18.43;55.40;99499.59;2049391;28;19925;-50
2022/03/28 02:56:48;;;;;;;;;;;;;;;18.43;55.32;99496.91;2053755;28;20008;-51
2022/03/28 02:57:49;;;;;;;;;;;;;;;18.42;55.35;99491.72;2054980;28;21336;-52
2022/03/28 02:58:50;;;;;;;;;;;;;;;18.42;55.25;99497.94;2053663;28;20018;-50
2022/03/28 02:59:51;;;;;;;;;;;;;;;18.39;55.28;99492.91;2055951;28;19937;-51
2022/03/28 03:00:52;;;;;;;;;;;;;;;18.39;55.20;99492.91;2052675;28;19929;-51
2022/03/28 03:01:54;;;;;;;;;;;;;;;18.41;55.21;99495.41;2043753;28;20359;-52
2022/03/28 03:02:55;;;;;;;;;;;;;;;18.41;55.33;99495.41;2054634;28;19925;-50
2022/03/28 03:03:57;;;;;;;;;;;;;;;18.39;55.51;99492.91;2055892;28;20415;-50
2022/03/28 03:04:58;;;;;;;;;;;;;;;18.38;55.28;99485.88;2051106;28;19933;-50
2022/03/28 03:05:59;;;;;;;;;;;;;;;18.38;55.25;99485.88;2054707;28;19940;-52
2022/03/28 03:07:01;;;;;;;;;;;;;;;18.38;55.49;99485.88;2056352;28;19929;-51
2022/03/28 03:08:03;;;;;;;;;;;;;;;18.37;55.39;99484.22;2054440;28;19936;-49
2022/03/28 03:09:05;;;;;;;;;;;;;;;18.38;55.20;99485.03;2054692;28;20618;-51
2022/03/28 03:10:07;;;;;;;;;;;;;;;18.37;55.26;99484.22;2057511;28;20300;-51
2022/03/28 03:11:08;;;;;;;;;;;;;;;18.38;55.47;99485.88;2057544;28;19922;-48
2022/03/28 03:12:10;;;;;;;;;;;;;;;18.37;55.13;99486.88;2057174;28;19932;-50
2022/03/28 03:13:11;;;;;;;;;;;;;;;18.37;55.37;99489.56;2053368;28;19925;-47
2022/03/28 03:14:12;;;;;;;;;;;;;;;18.38;55.52;99493.91;2047554;28;20016;-51
2022/03/28 03:15:13;;;;;;;;;;;;;;;18.38;55.46;99485.88;2056482;28;20996;-51
2022/03/28 03:16:15;;;;;;;;;;;;;;;18.38;55.25;99485.03;2054568;28;19930;-51
2022/03/28 03:17:16;;;;;;;;;;;;;;;18.36;55.15;99479.84;2053808;28;21300;-50
2022/03/28 03:18:17;;;;;;;;;;;;;;;18.37;55.44;99478.00;2054985;28;19926;-52
2022/03/28 03:19:18;;;;;;;;;;;;;;;18.37;55.42;99480.69;2051351;28;20025;-50
2022/03/28 03:20:19;;;;;;;;;;;;;;;18.36;55.29;99490.59;2054141;28;19932;-53
2022/03/28 03:21:20;;;;;;;;;;;;;;;18.35;55.21;99483.53;2055736;28;19925;-52
2022/03/28 03:22:22;;;;;;;;;;;;;;;18.35;55.40;99486.22;2053621;28;19953;-49
2022/03/28 03:23:22;;;;;;;;;;;;;;;18.36;55.50;99484.38;2053352;28;20025;-49
2022/03/28 03:24:25;;;;;;;;;;;;;;;18.36;55.23;99487.06;2053923;28;21165;-50
2022/03/28 03:25:26;;;;;;;;;;;;;;;18.35;55.45;99485.41;2053916;28;19930;-50
2022/03/28 03:26:27;;;;;;;;;;;;;;;18.34;55.46;99479.19;2055458;28;20402;-49
2022/03/28 03:27:28;;;;;;;;;;;;;;;18.34;55.11;99484.56;2057692;28;19968;-51
2022/03/28 03:28:30;;;;;;;;;;;;;;;18.34;55.21;99484.56;2050035;28;19933;-49
2022/03/28 03:29:31;;;;;;;;;;;;;;;18.34;55.31;99483.75;2052185;28;19934;-52
2022/03/28 03:30:32;;;;;;;;;;;;;;;18.31;55.39;99475.03;2056129;28;20369;-50
2022/03/28 03:31:33;;;;;;;;;;;;;;;18.33;55.32;99484.75;2056622;28;19933;-51
2022/03/28 03:32:35;;;;;;;;;;;;;;;18.31;55.40;99476.88;2056935;28;19922;-51
2022/03/28 03:33:36;;;;;;;;;;;;;;;18.31;55.19;99482.25;2052210;28;19926;-50
2022/03/28 03:34:38;;;;;;;;;;;;;;;18.33;55.13;99482.06;2052490;28;20341;-50
2022/03/28 03:35:38;;;;;;;;;;;;;;;18.31;55.39;99482.25;2051592;28;19925;-50
2022/03/28 03:36:40;;;;;;;;;;;;;;;18.31;55.39;99484.94;2053192;28;19950;-48
2022/03/28 03:37:40;;;;;;;;;;;;;;;18.31;55.53;99484.94;2055726;28;19926;-49
2022/03/28 03:38:42;;;;;;;;;;;;;;;18.30;55.24;99483.25;2055389;28;20037;-48
2022/03/28 03:39:44;;;;;;;;;;;;;;;18.29;55.29;99485.09;2053678;28;20742;-50
2022/03/28 03:40:46;;;;;;;;;;;;;;;18.30;55.45;99486.78;2054725;28;19933;-50
2022/03/28 03:41:46;;;;;;;;;;;;;;;18.31;55.24;99490.31;2055106;28;19922;-52
2022/03/28 03:42:48;;;;;;;;;;;;;;;18.31;55.19;99482.25;2050311;28;20513;-53
2022/03/28 03:43:48;;;;;;;;;;;;;;;18.30;55.18;99483.25;2052550;28;19933;-52
2022/03/28 03:44:50;;;;;;;;;;;;;;;18.30;55.27;99488.63;2054272;28;20531;-49
2022/03/28 03:45:51;;;;;;;;;;;;;;;18.29;55.45;99481.59;2051215;28;19977;-51
2022/03/28 03:46:52;;;;;;;;;;;;;;;18.29;55.14;99482.41;2054816;28;19926;-49
2022/03/28 03:47:52;;;;;;;;;;;;;;;18.28;55.38;99479.94;2052012;28;20012;-51
2022/03/28 03:48:56;;;;;;;;;;;;;;;18.27;55.46;99480.94;2053828;28;20518;-50
2022/03/28 03:49:57;;;;;;;;;;;;;;;18.28;55.52;99485.28;2056705;28;21049;-50
2022/03/28 03:50:59;;;;;;;;;;;;;;;18.26;55.38;99490.84;2047329;28;19930;-48
2022/03/28 03:51:59;;;;;;;;;;;;;;;18.27;55.22;99481.75;2057574;28;19922;-52
2022/03/28 03:53:01;;;;;;;;;;;;;;;18.28;55.48;99487.97;2052327;28;19992;-52
2022/03/28 03:54:02;;;;;;;;;;;;;;;18.26;55.34;99481.94;2052027;28;20307;-49
2022/03/28 03:55:06;;;;;;;;;;;;;;;18.26;55.19;99479.25;2052895;28;19922;-50
2022/03/28 03:56:08;;;;;;;;;;;;;;;18.25;55.30;99482.97;2052080;28;19926;-50
2022/03/28 03:57:08;;;;;;;;;;;;;;;18.24;55.38;99483.97;2055435;28;19980;-51
2022/03/28 03:58:10;;;;;;;;;;;;;;;18.24;55.40;99482.13;2052578;28;19925;-50
2022/03/28 03:59:11;;;;;;;;;;;;;;;18.24;55.25;99481.28;2052897;28;19930;-51
2022/03/28 04:00:13;;;;;;;;;;;;;;;18.24;55.39;99487.50;2053121;28;20566;-50
2022/03/28 04:01:14;;;;;;;;;;;;;;;18.24;55.04;99494.72;2052337;28;20403;-49
2022/03/28 04:02:15;;;;;;;;;;;;;;;18.25;55.54;99485.66;2054034;28;19922;-51
2022/03/28 04:03:17;;;;;;;;;;;;;;;18.24;55.38;99487.50;2050435;28;20296;-50
2022/03/28 04:04:17;;;;;;;;;;;;;;;18.24;55.14;99486.66;2056541;28;19926;-49
2022/03/28 04:05:19;;;;;;;;;;;;;;;18.22;55.26;99494.91;2056244;28;19964;-48
2022/03/28 04:06:19;;;;;;;;;;;;;;;18.20;55.42;99488.06;2054434;28;19964;-49
2022/03/28 04:07:21;;;;;;;;;;;;;;;18.20;55.33;99493.41;2057509;28;19941;-51
2022/03/28 04:08:21;;;;;;;;;;;;;;;18.21;55.06;99489.72;2053821;28;20383;-50
2022/03/28 04:09:23;;;;;;;;;;;;;;;18.20;55.24;99494.25;2057109;28;20024;-48
2022/03/28 04:10:26;;;;;;;;;;;;;;;18.21;55.50;99484.34;2052692;28;20098;-52
2022/03/28 04:11:28;;;;;;;;;;;;;;;18.23;55.21;99485.84;2050853;28;20092;-50
2022/03/28 04:12:28;;;;;;;;;;;;;;;18.25;55.21;99482.97;2056542;28;19925;-51
2022/03/28 04:13:30;;;;;;;;;;;;;;;18.28;55.33;99479.94;2058389;28;19926;-50
2022/03/28 04:14:30;;;;;;;;;;;;;;;18.33;55.16;99482.91;2058149;28;20308;-49
2022/03/28 04:15:32;;;;;;;;;;;;;;;18.38;54.99;99488.53;2052316;28;19926;-51
2022/03/28 04:16:33;;;;;;;;;;;;;;;18.41;54.89;99487.34;2050564;28;20007;-46
2022/03/28 04:17:40;;;;;;;;;;;;;;;18.45;55.13;99483.31;2054799;28;19928;-50
2022/03/28 04:18:41;;;;;;;;;;;;;;;18.49;54.77;99487.28;2054556;28;19926;-52
2022/03/28 04:19:42;;;;;;;;;;;;;;;18.51;54.94;99488.78;2055966;28;20034;-51
2022/03/28 04:20:43;;;;;;;;;;;;;;;18.54;55.01;99479.50;2046583;28;21128;-52
2022/03/28 04:21:44;;;;;;;;;;;;;;;18.59;54.72;99481.66;2051289;28;19929;-52
2022/03/28 04:22:46;;;;;;;;;;;;;;;18.62;54.58;99486.66;2055116;28;19930;-50
2022/03/28 04:23:47;;;;;;;;;;;;;;;18.64;54.70;99476.59;2051875;28;20480;-52
2022/03/28 04:24:49;;;;;;;;;;;;;;;18.68;54.77;99480.56;2054103;28;19926;-49
2022/03/28 04:25:52;;;;;;;;;;;;;;;18.67;54.84;99486.97;2053370;28;19929;-46
2022/03/28 04:26:53;;;;;;;;;;;;;;;18.70;54.60;99484.72;2053354;28;20099;-51
2022/03/28 04:27:55;;;;;;;;;;;;;;;18.73;54.58;99488.91;2056561;28;19933;-51
2022/03/28 04:28:58;;;;;;;;;;;;;;;18.77;54.48;99486.72;2050120;28;20549;-50
2022/03/28 04:30:00;;;;;;;;;;;;;;;18.77;54.82;99479.47;2053561;28;19949;-48
2022/03/28 04:31:00;;;;;;;;;;;;;;;18.79;54.61;99488.19;2055142;28;20446;-50
2022/03/28 04:32:02;;;;;;;;;;;;;;;18.82;54.66;99484.31;2055666;28;19925;-52
2022/03/28 04:33:03;;;;;;;;;;;;;;;18.83;54.63;99486.78;2052779;28;19928;-49
2022/03/28 04:34:05;;;;;;;;;;;;;;;18.84;54.60;99482.28;2058232;28;20352;-49
2022/03/28 04:35:06;;;;;;;;;;;;;;;18.86;54.54;99485.59;2056132;28;19983;-51
2022/03/28 04:36:08;;;;;;;;;;;;;;;18.87;54.65;99490.81;2054376;28;20591;-49
2022/03/28 04:37:09;;;;;;;;;;;;;;;18.87;54.39;99481.91;2048974;28;19929;-47
2022/03/28 04:38:10;;;;;;;;;;;;;;;18.88;54.37;99489.78;2049519;28;19932;-51
2022/03/28 04:39:11;;;;;;;;;;;;;;;18.89;54.48;99491.47;2053782;28;19922;-46
2022/03/28 04:40:14;;;;;;;;;;;;;;;18.90;54.59;99492.28;2055365;28;20256;-51
2022/03/28 04:41:16;;;;;;;;;;;;;;;18.91;54.38;99491.25;2054830;28;19933;-52
2022/03/28 04:42:18;;;;;;;;;;;;;;;18.91;54.57;99486.72;2055731;28;19926;-54
2022/03/28 04:43:19;;;;;;;;;;;;;;;18.93;54.39;99484.69;2054907;28;19922;-51
2022/03/28 04:44:20;;;;;;;;;;;;;;;18.93;54.32;99492.75;2053131;28;19926;-50
2022/03/28 04:45:21;;;;;;;;;;;;;;;18.94;54.42;99494.44;2056063;28;20284;-51
2022/03/28 04:46:22;;;;;;;;;;;;;;;18.93;54.73;99487.38;2053994;28;20008;-50
2022/03/28 04:47:24;;;;;;;;;;;;;;;18.96;54.54;99495.06;2052000;28;19962;-51
2022/03/28 04:48:26;;;;;;;;;;;;;;;18.98;54.40;99490.34;2055000;28;19930;-54
2022/03/28 04:49:26;;;;;;;;;;;;;;;18.98;54.54;99497.56;2057027;28;19936;-53
2022/03/28 04:50:29;;;;;;;;;;;;;;;18.98;54.35;99497.56;2052559;28;20314;-52
2022/03/28 04:51:30;;;;;;;;;;;;;;;19.00;54.28;99497.38;2055343;28;19922;-51
2022/03/28 04:52:31;;;;;;;;;;;;;;;19.00;54.54;99497.38;2050631;28;19932;-51
2022/03/28 04:53:32;;;;;;;;;;;;;;;18.99;54.44;99493.84;2053199;28;19983;-53
2022/03/28 04:54:36;;;;;;;;;;;;;;;19.00;54.61;99494.69;2052087;28;19976;-51
2022/03/28 04:55:37;;;;;;;;;;;;;;;19.01;54.26;99496.38;2053294;28;22085;-50
2022/03/28 04:56:39;;;;;;;;;;;;;;;19.01;54.50;99496.38;2053527;28;19930;-51
2022/03/28 04:57:40;;;;;;;;;;;;;;;19.00;54.32;99495.53;2053877;28;19967;-56
2022/03/28 04:58:42;;;;;;;;;;;;;;;19.02;54.33;99492.66;2053092;28;19952;-53
2022/03/28 04:59:42;;;;;;;;;;;;;;;19.03;54.50;99502.38;2048739;28;19922;-51
2022/03/28 05:00:44;;;;;;;;;;;;;;;19.01;54.25;99502.59;2053557;28;19926;-54
2022/03/28 05:01:44;;;;;;;;;;;;;;;19.03;54.13;99495.19;2054990;28;19925;-47
2022/03/28 05:02:46;;;;;;;;;;;;;;;19.03;54.46;99500.56;2055765;28;19969;-51
2022/03/28 05:03:47;;;;;;;;;;;;;;;19.03;54.24;99500.56;2052058;28;19930;-59
2022/03/28 05:04:48;;;;;;;;;;;;;;;19.03;54.32;99503.25;2052044;28;19926;-52
2022/03/28 05:05:49;;;;;;;;;;;;;;;19.03;54.26;99499.69;2051753;28;20315;-58
2022/03/28 05:06:50;;;;;;;;;;;;;;;19.05;54.48;99503.03;2055064;28;19973;-52
2022/03/28 05:07:51;;;;;;;;;;;;;;;19.05;54.36;99505.72;2054800;28;19929;-53
2022/03/28 05:08:52;;;;;;;;;;;;;;;19.04;54.51;99507.59;2053976;28;20037;-55
2022/03/28 05:09:54;;;;;;;;;;;;;;;19.05;54.31;99508.41;2055589;28;20577;-58
2022/03/28 05:10:55;;;;;;;;;;;;;;;19.05;54.42;99501.19;2052706;28;19997;-59
2022/03/28 05:11:58;;;;;;;;;;;;;;;19.07;54.43;99501.00;2054786;28;19926;-54
2022/03/28 05:12:59;;;;;;;;;;;;;;;19.06;54.40;99505.56;2052265;28;21631;-54
2022/03/28 05:14:02;;;;;;;;;;;;;;;19.05;54.19;99503.88;2052943;28;19933;-53
2022/03/28 05:15:04;;;;;;;;;;;;;;;19.05;54.45;99511.09;2054969;28;19922;-53
2022/03/28 05:16:06;;;;;;;;;;;;;;;19.05;54.22;99505.72;2056858;28;20413;-53
2022/03/28 05:17:07;;;;;;;;;;;;;;;19.04;54.51;99501.38;2057458;28;19937;-53
2022/03/28 05:18:09;;;;;;;;;;;;;;;19.05;54.23;99508.41;2053305;28;19922;-56
2022/03/28 05:19:09;;;;;;;;;;;;;;;19.05;54.24;99506.56;2053672;28;19922;-53
2022/03/28 05:20:11;;;;;;;;;;;;;;;19.03;54.44;99508.63;2049533;28;19933;-56
2022/03/28 05:21:12;;;;;;;;;;;;;;;19.04;54.25;99506.75;2051249;28;19956;-53